createdAt,value
2023-04-23T00:00:27.876Z,40.00
2023-04-23T00:01:27.787Z,39.80
2023-04-23T00:02:27.895Z,40.20
2023-04-23T00:03:28.109Z,39.30
2023-04-23T00:04:27.866Z,39.20
2023-04-23T00:05:27.849Z,40.20
2023-04-23T00:06:27.756Z,41.00
2023-04-23T00:07:27.749Z,40.60
2023-04-23T00:08:27.747Z,40.30
2023-04-23T00:09:27.791Z,40.00
2023-04-23T00:10:27.723Z,40.20
2023-04-23T00:11:27.657Z,38.90
2023-04-23T00:12:27.671Z,41.50
2023-04-23T00:13:27.648Z,41.20
2023-04-23T00:14:27.664Z,42.30
2023-04-23T00:15:27.722Z,41.00
2023-04-23T00:16:27.652Z,44.60
2023-04-23T00:17:27.658Z,45.00
2023-04-23T00:18:27.585Z,45.70
2023-04-23T00:19:27.571Z,43.80
2023-04-23T00:20:27.594Z,46.20
2023-04-23T00:21:27.674Z,44.10
2023-04-23T00:22:27.557Z,44.70
2023-04-23T00:23:27.485Z,44.20
2023-04-23T00:24:27.497Z,44.20
2023-04-23T00:25:27.494Z,43.20
2023-04-23T00:26:27.495Z,46.40
2023-04-23T00:27:27.495Z,44.60
2023-04-23T00:28:27.475Z,47.20
2023-04-23T00:29:27.402Z,48.20
2023-04-23T00:30:27.426Z,48.60
2023-04-23T00:31:27.463Z,47.80
2023-04-23T00:32:27.445Z,48.90
2023-04-23T00:33:27.462Z,49.50
2023-04-23T00:34:27.395Z,52.20
2023-04-23T00:35:27.327Z,55.90
2023-04-23T00:36:27.346Z,55.40
2023-04-23T00:37:27.328Z,57.10
2023-04-23T00:38:27.322Z,59.20
2023-04-23T00:39:27.424Z,60.50
2023-04-23T00:40:27.306Z,60.30
2023-04-23T00:41:27.265Z,60.80
2023-04-23T00:42:27.285Z,63.50
2023-04-23T00:43:27.225Z,61.50
2023-04-23T00:44:27.221Z,63.00
2023-04-23T00:45:27.248Z,65.00
2023-04-23T00:46:27.232Z,61.80
2023-04-23T00:47:27.195Z,62.80
2023-04-23T00:48:27.173Z,62.40
2023-04-23T00:49:27.160Z,61.70
2023-04-23T00:50:27.156Z,63.30
2023-04-23T00:51:27.242Z,63.10
2023-04-23T00:52:27.152Z,63.80
2023-04-23T00:53:27.084Z,68.80
2023-04-23T00:54:27.122Z,69.60
2023-04-23T00:55:27.067Z,72.10
2023-04-23T00:56:27.076Z,73.50
2023-04-23T00:57:27.073Z,77.60
2023-04-23T00:58:27.043Z,74.10
2023-04-23T00:59:27.032Z,75.90
2023-04-23T01:00:27.054Z,73.60
2023-04-23T01:01:26.982Z,74.20
2023-04-23T01:02:27.176Z,76.60
2023-04-23T01:03:27.203Z,73.30
2023-04-23T01:04:27.007Z,79.10
2023-04-23T01:05:26.956Z,74.80
2023-04-23T01:06:26.940Z,78.70
2023-04-23T01:07:26.920Z,75.10
2023-04-23T01:08:26.931Z,75.10
2023-04-23T01:09:26.916Z,75.60
2023-04-23T01:10:26.908Z,73.80
2023-04-23T01:11:26.845Z,74.20
2023-04-23T01:12:26.868Z,72.90
2023-04-23T01:13:26.854Z,77.50
2023-04-23T01:14:26.836Z,75.60
2023-04-23T01:15:26.942Z,77.80
2023-04-23T01:16:26.869Z,75.10
2023-04-23T01:17:26.778Z,72.70
2023-04-23T01:18:26.802Z,75.70
2023-04-23T01:19:26.763Z,75.00
2023-04-23T01:20:26.781Z,74.30
2023-04-23T01:21:26.830Z,78.10
2023-04-23T01:22:26.747Z,76.50
2023-04-23T01:23:26.696Z,80.60
2023-04-23T01:24:26.710Z,81.30
2023-04-23T01:25:26.684Z,76.60
2023-04-23T01:26:26.667Z,77.40
2023-04-23T01:27:26.677Z,75.70
2023-04-23T01:28:26.697Z,75.30
2023-04-23T01:29:26.614Z,75.80
2023-04-23T01:30:26.641Z,76.60
2023-04-23T01:31:26.617Z,74.80
2023-04-23T01:32:26.616Z,78.80
2023-04-23T01:33:26.607Z,76.90
2023-04-23T01:34:26.596Z,69.50
2023-04-23T01:35:26.524Z,72.40
2023-04-23T01:36:26.542Z,76.40
2023-04-23T01:37:26.526Z,79.70
2023-04-23T01:38:26.505Z,72.80
2023-04-23T01:39:26.543Z,73.60
2023-04-23T01:40:26.512Z,75.50
2023-04-23T01:41:26.458Z,79.00
2023-04-23T01:42:26.493Z,78.30
2023-04-23T01:43:26.414Z,75.70
2023-04-23T01:44:26.437Z,77.00
2023-04-23T01:45:26.455Z,77.90
2023-04-23T01:46:26.427Z,74.50
2023-04-23T01:47:26.411Z,73.70
2023-04-23T01:48:26.403Z,74.60
2023-04-23T01:49:26.338Z,76.30
2023-04-23T01:50:26.361Z,73.90
2023-04-23T01:51:26.434Z,77.30
2023-04-23T01:52:26.356Z,76.60
2023-04-23T01:53:26.275Z,77.60
2023-04-23T01:54:26.322Z,79.70
2023-04-23T01:55:26.260Z,76.50
2023-04-23T01:56:26.262Z,76.50
2023-04-23T01:57:26.470Z,77.10
2023-04-23T01:58:26.238Z,76.50
2023-04-23T01:59:26.222Z,76.60
2023-04-23T02:00:26.237Z,76.00
2023-04-23T02:01:26.243Z,76.10
2023-04-23T02:02:26.314Z,79.70
2023-04-23T02:03:26.275Z,77.40
2023-04-23T02:04:26.277Z,78.70
2023-04-23T02:05:26.143Z,81.50
2023-04-23T02:06:26.131Z,80.10
2023-04-23T02:07:26.113Z,78.00
2023-04-23T02:08:26.131Z,79.50
2023-04-23T02:09:26.118Z,79.80
2023-04-23T02:10:26.158Z,77.40
2023-04-23T02:11:26.037Z,75.50
2023-04-23T02:12:26.059Z,78.10
2023-04-23T02:13:26.034Z,83.00
2023-04-23T02:14:26.021Z,78.40
2023-04-23T02:15:26.144Z,73.90
2023-04-23T02:16:26.063Z,77.80
2023-04-23T02:17:25.973Z,77.10
2023-04-23T02:18:25.996Z,78.30
2023-04-23T02:19:25.927Z,75.20
2023-04-23T02:20:25.943Z,78.20
2023-04-23T02:21:25.951Z,79.90
2023-04-23T02:22:25.940Z,79.10
2023-04-23T02:23:25.878Z,75.40
2023-04-23T02:24:25.900Z,80.00
2023-04-23T02:25:25.882Z,76.80
2023-04-23T02:26:25.858Z,79.40
2023-04-23T02:27:25.974Z,80.90
2023-04-23T02:28:25.860Z,80.80
2023-04-23T02:29:25.795Z,82.30
2023-04-23T02:30:25.841Z,84.70
2023-04-23T02:31:25.853Z,87.70
2023-04-23T02:32:25.794Z,87.60
2023-04-23T02:33:25.895Z,87.70
2023-04-23T02:34:25.755Z,88.30
2023-04-23T02:35:25.733Z,85.10
2023-04-23T02:36:25.745Z,85.70
2023-04-23T02:37:25.681Z,80.30
2023-04-23T02:38:25.713Z,81.40
2023-04-23T02:39:25.819Z,84.90
2023-04-23T02:40:25.698Z,87.30
2023-04-23T02:41:25.623Z,83.50
2023-04-23T02:42:25.670Z,83.60
2023-04-23T02:43:25.602Z,85.30
2023-04-23T02:44:25.613Z,82.30
2023-04-23T02:45:25.723Z,84.20
2023-04-23T02:46:25.618Z,83.10
2023-04-23T02:47:25.642Z,81.90
2023-04-23T02:48:25.595Z,86.20
2023-04-23T02:49:25.509Z,87.60
2023-04-23T02:50:25.559Z,86.30
2023-04-23T02:51:25.600Z,87.80
2023-04-23T02:52:25.574Z,87.10
2023-04-23T02:53:25.488Z,87.80
2023-04-23T02:54:25.509Z,90.00
2023-04-23T02:55:25.455Z,92.60
2023-04-23T02:56:25.488Z,89.80
2023-04-23T02:57:25.488Z,93.60
2023-04-23T02:58:25.424Z,96.20
2023-04-23T02:59:25.412Z,98.90
2023-04-23T03:00:25.453Z,95.90
2023-04-23T03:01:25.433Z,99.00
2023-04-23T03:02:25.515Z,98.70
2023-04-23T03:03:25.452Z,100.70
2023-04-23T03:04:25.334Z,100.70
2023-04-23T03:05:25.403Z,99.20
2023-04-23T03:06:25.309Z,103.40
2023-04-23T03:07:25.301Z,102.30
2023-04-23T03:08:25.314Z,104.60
2023-04-23T03:09:25.270Z,103.30
2023-04-23T03:10:25.288Z,105.00
2023-04-23T03:11:25.219Z,103.50
2023-04-23T03:12:25.236Z,101.80
2023-04-23T03:13:25.216Z,102.00
2023-04-23T03:14:25.218Z,99.00
2023-04-23T03:15:25.240Z,99.90
2023-04-23T03:16:25.211Z,100.70
2023-04-23T03:17:25.157Z,103.30
2023-04-23T03:18:25.174Z,101.70
2023-04-23T03:19:25.108Z,100.40
2023-04-23T03:20:25.123Z,102.80
2023-04-23T03:21:25.138Z,100.70
2023-04-23T03:22:25.094Z,106.90
2023-04-23T03:23:25.083Z,105.50
2023-04-23T03:24:25.099Z,101.40
2023-04-23T03:25:25.025Z,97.70
2023-04-23T03:26:25.040Z,100.60
2023-04-23T03:27:25.059Z,101.90
2023-04-23T03:28:25.038Z,101.70
2023-04-23T03:29:24.970Z,100.70
2023-04-23T03:30:25.010Z,92.80
2023-04-23T03:31:24.966Z,93.20
2023-04-23T03:32:24.998Z,97.10
2023-04-23T03:33:25.073Z,94.30
2023-04-23T03:34:24.931Z,96.00
2023-04-23T03:35:24.920Z,94.50
2023-04-23T03:36:24.928Z,94.70
2023-04-23T03:37:24.866Z,95.30
2023-04-23T03:38:24.922Z,98.10
2023-04-23T03:39:24.866Z,94.60
2023-04-23T03:40:24.848Z,100.30
2023-04-23T03:41:24.841Z,97.10
2023-04-23T03:42:24.840Z,95.30
2023-04-23T03:43:24.787Z,92.00
2023-04-23T03:44:24.801Z,90.00
2023-04-23T03:45:24.892Z,92.70
2023-04-23T03:46:24.820Z,92.70
2023-04-23T03:47:24.776Z,93.50
2023-04-23T03:48:24.766Z,90.50
2023-04-23T03:49:24.700Z,91.30
2023-04-23T03:50:24.741Z,94.60
2023-04-23T03:51:24.702Z,93.20
2023-04-23T03:52:24.676Z,92.40
2023-04-23T03:53:24.676Z,96.00
2023-04-23T03:54:24.649Z,94.30
2023-04-23T03:55:24.654Z,94.50
2023-04-23T03:56:26.967Z,96.80
2023-04-23T03:57:24.632Z,94.40
2023-04-23T03:58:24.607Z,97.50
2023-04-23T03:59:24.585Z,96.70
2023-04-23T04:00:24.596Z,99.30
2023-04-23T04:01:24.533Z,99.60
2023-04-23T04:02:24.756Z,101.30
2023-04-23T04:03:24.788Z,101.80
2023-04-23T04:04:24.837Z,101.30
2023-04-23T04:05:24.587Z,103.70
2023-04-23T04:06:24.495Z,105.70
2023-04-23T04:07:24.481Z,106.10
2023-04-23T04:08:24.498Z,107.00
2023-04-23T04:09:24.538Z,111.60
2023-04-23T04:10:24.484Z,108.10
2023-04-23T04:11:24.394Z,110.40
2023-04-23T04:12:24.420Z,108.60
2023-04-23T04:13:24.400Z,109.20
2023-04-23T04:14:24.407Z,108.90
2023-04-23T04:15:24.485Z,109.90
2023-04-23T04:16:24.382Z,114.40
2023-04-23T04:17:24.391Z,109.40
2023-04-23T04:18:24.313Z,107.20
2023-04-23T04:19:24.349Z,105.80
2023-04-23T04:20:24.313Z,108.60
2023-04-23T04:21:24.330Z,107.30
2023-04-23T04:22:24.272Z,111.50
2023-04-23T04:23:24.274Z,109.30
2023-04-23T04:24:25.702Z,116.50
2023-04-23T04:25:24.259Z,118.30
2023-04-23T04:26:24.198Z,114.30
2023-04-23T04:27:24.282Z,113.50
2023-04-23T04:28:24.186Z,110.50
2023-04-23T04:29:24.203Z,108.20
2023-04-23T04:30:24.153Z,111.10
2023-04-23T04:31:24.220Z,112.10
2023-04-23T04:32:24.201Z,113.60
2023-04-23T04:33:24.239Z,112.50
2023-04-23T04:34:24.111Z,108.80
2023-04-23T04:35:24.123Z,109.40
2023-04-23T04:36:24.065Z,109.00
2023-04-23T04:37:24.113Z,111.40
2023-04-23T04:38:24.032Z,112.90
2023-04-23T04:39:24.091Z,113.80
2023-04-23T04:40:24.066Z,118.60
2023-04-23T04:41:24.033Z,112.80
2023-04-23T04:42:24.003Z,114.70
2023-04-23T04:43:23.990Z,114.20
2023-04-23T04:44:23.954Z,111.50
2023-04-23T04:45:24.098Z,114.60
2023-04-23T04:46:24.001Z,114.40
2023-04-23T04:47:23.966Z,113.80
2023-04-23T04:48:23.896Z,114.10
2023-04-23T04:49:23.951Z,114.60
2023-04-23T04:50:23.865Z,117.30
2023-04-23T04:51:23.941Z,117.70
2023-04-23T04:52:23.879Z,118.80
2023-04-23T04:53:23.876Z,121.90
2023-04-23T04:54:23.832Z,116.50
2023-04-23T04:55:23.820Z,109.60
2023-04-23T04:56:23.778Z,109.80
2023-04-23T04:57:23.879Z,112.30
2023-04-23T04:58:23.770Z,107.10
2023-04-23T04:59:23.803Z,109.40
2023-04-23T05:00:23.756Z,113.60
2023-04-23T05:01:23.781Z,109.70
2023-04-23T05:02:23.809Z,108.10
2023-04-23T05:03:23.953Z,103.00
2023-04-23T05:04:23.804Z,99.90
2023-04-23T05:05:23.678Z,97.90
2023-04-23T05:06:23.672Z,101.40
2023-04-23T05:07:23.661Z,106.20
2023-04-23T05:08:23.628Z,103.10
2023-04-23T05:09:23.782Z,101.30
2023-04-23T05:10:23.599Z,105.00
2023-04-23T05:11:23.632Z,109.40
2023-04-23T05:12:23.598Z,103.50
2023-04-23T05:13:23.586Z,108.30
2023-04-23T05:14:23.566Z,103.50
2023-04-23T05:15:23.596Z,100.70
2023-04-23T05:16:23.564Z,98.40
2023-04-23T05:17:23.573Z,101.20
2023-04-23T05:18:23.489Z,102.30
2023-04-23T05:19:23.524Z,102.40
2023-04-23T05:20:23.474Z,104.30
2023-04-23T05:21:23.510Z,101.20
2023-04-23T05:22:23.458Z,111.90
2023-04-23T05:23:23.439Z,110.00
2023-04-23T05:24:23.410Z,111.00
2023-04-23T05:25:23.444Z,109.70
2023-04-23T05:26:23.369Z,110.40
2023-04-23T05:27:23.458Z,112.10
2023-04-23T05:28:23.376Z,114.20
2023-04-23T05:29:23.374Z,112.50
2023-04-23T05:30:23.376Z,111.20
2023-04-23T05:31:23.359Z,108.20
2023-04-23T05:32:23.359Z,110.60
2023-04-23T05:33:23.373Z,109.00
2023-04-23T05:34:23.291Z,110.50
2023-04-23T05:35:23.272Z,110.30
2023-04-23T05:36:23.249Z,108.30
2023-04-23T05:37:23.275Z,113.10
2023-04-23T05:38:23.214Z,108.50
2023-04-23T05:39:23.364Z,108.70
2023-04-23T05:40:23.203Z,111.40
2023-04-23T05:41:23.209Z,109.00
2023-04-23T05:42:23.179Z,109.60
2023-04-23T05:43:23.166Z,106.10
2023-04-23T05:44:23.124Z,106.40
2023-04-23T05:45:23.196Z,105.50
2023-04-23T05:46:23.144Z,103.40
2023-04-23T05:47:23.171Z,107.40
2023-04-23T05:48:23.093Z,105.40
2023-04-23T05:49:23.082Z,100.50
2023-04-23T05:50:23.031Z,101.20
2023-04-23T05:51:23.104Z,100.50
2023-04-23T05:52:23.034Z,100.30
2023-04-23T05:53:23.023Z,104.60
2023-04-23T05:54:23.003Z,107.00
2023-04-23T05:55:23.001Z,105.20
2023-04-23T05:56:22.951Z,100.90
2023-04-23T05:57:23.434Z,104.20
2023-04-23T05:58:22.935Z,100.60
2023-04-23T05:59:22.986Z,103.80
2023-04-23T06:00:22.937Z,104.10
2023-04-23T06:01:22.972Z,102.40
2023-04-23T06:02:24.673Z,102.40
2023-04-23T06:03:23.065Z,104.00
2023-04-23T06:04:23.092Z,97.50
2023-04-23T06:05:23.089Z,96.70
2023-04-23T06:06:22.845Z,103.40
2023-04-23T06:07:22.832Z,102.10
2023-04-23T06:08:24.895Z,104.70
2023-04-23T06:09:22.877Z,100.30
2023-04-23T06:10:22.755Z,109.80
2023-04-23T06:11:22.797Z,106.20
2023-04-23T06:12:22.757Z,104.30
2023-04-23T06:13:22.744Z,102.90
2023-04-23T06:14:22.739Z,104.10
2023-04-23T06:15:22.840Z,103.00
2023-04-23T06:16:22.717Z,101.00
2023-04-23T06:17:22.717Z,107.90
2023-04-23T06:18:22.640Z,100.50
2023-04-23T06:19:22.685Z,98.20
2023-04-23T06:20:22.662Z,97.20
2023-04-23T06:21:22.686Z,98.90
2023-04-23T06:22:22.634Z,98.70
2023-04-23T06:23:22.602Z,96.30
2023-04-23T06:24:22.567Z,92.00
2023-04-23T06:25:22.602Z,96.40
2023-04-23T06:26:22.536Z,96.60
2023-04-23T06:27:22.636Z,91.30
2023-04-23T06:28:22.536Z,86.30
2023-04-23T06:29:22.541Z,89.00
2023-04-23T06:30:22.507Z,84.20
2023-04-23T06:31:22.530Z,87.00
2023-04-23T06:32:22.461Z,86.30
2023-04-23T06:33:22.521Z,84.30
2023-04-23T06:34:22.441Z,85.60
2023-04-23T06:35:22.468Z,86.00
2023-04-23T06:36:22.441Z,88.70
2023-04-23T06:37:22.431Z,90.70
2023-04-23T06:38:22.369Z,87.00
2023-04-23T06:39:22.527Z,89.10
2023-04-23T06:40:22.374Z,89.00
2023-04-23T06:41:22.382Z,88.90
2023-04-23T06:42:22.348Z,85.00
2023-04-23T06:43:22.327Z,84.50
2023-04-23T06:44:22.287Z,84.90
2023-04-23T06:45:22.373Z,83.50
2023-04-23T06:46:22.281Z,85.30
2023-04-23T06:47:22.309Z,86.20
2023-04-23T06:48:22.267Z,88.10
2023-04-23T06:49:22.251Z,87.70
2023-04-23T06:50:22.229Z,85.50
2023-04-23T06:51:22.261Z,84.40
2023-04-23T06:52:22.182Z,82.70
2023-04-23T06:53:22.479Z,85.70
2023-04-23T06:54:22.193Z,82.40
2023-04-23T06:55:22.176Z,83.20
2023-04-23T06:56:22.124Z,81.00
2023-04-23T06:57:22.242Z,81.20
2023-04-23T06:58:22.104Z,81.10
2023-04-23T06:59:22.157Z,79.20
2023-04-23T07:00:22.094Z,81.20
2023-04-23T07:01:22.171Z,80.60
2023-04-23T07:02:22.086Z,78.00
2023-04-23T07:03:22.261Z,76.00
2023-04-23T07:04:22.078Z,77.40
2023-04-23T07:05:22.071Z,76.50
2023-04-23T07:06:22.253Z,74.80
2023-04-23T07:07:22.049Z,74.20
2023-04-23T07:08:22.025Z,72.10
2023-04-23T07:09:22.021Z,74.80
2023-04-23T07:10:22.048Z,71.20
2023-04-23T07:11:21.998Z,71.00
2023-04-23T07:12:21.950Z,73.30
2023-04-23T07:13:21.950Z,70.20
2023-04-23T07:14:22.012Z,69.20
2023-04-23T07:15:21.962Z,68.10
2023-04-23T07:16:22.271Z,70.80
2023-04-23T07:17:21.997Z,69.20
2023-04-23T07:18:22.687Z,67.30
2023-04-23T07:19:22.004Z,67.20
2023-04-23T07:20:21.853Z,70.80
2023-04-23T07:21:21.880Z,70.10
2023-04-23T07:22:21.834Z,71.10
2023-04-23T07:23:21.821Z,70.40
2023-04-23T07:24:21.770Z,69.50
2023-04-23T07:25:21.799Z,67.60
2023-04-23T07:26:21.752Z,67.50
2023-04-23T07:27:21.923Z,67.20
2023-04-23T07:28:21.739Z,67.40
2023-04-23T07:29:21.737Z,66.00
2023-04-23T07:30:21.726Z,67.50
2023-04-23T07:31:21.717Z,65.50
2023-04-23T07:32:21.682Z,64.60
2023-04-23T07:33:21.753Z,65.30
2023-04-23T07:34:21.641Z,62.60
2023-04-23T07:35:21.683Z,63.50
2023-04-23T07:36:21.658Z,59.20
2023-04-23T07:37:21.632Z,60.60
2023-04-23T07:38:21.611Z,59.20
2023-04-23T07:39:21.642Z,59.90
2023-04-23T07:40:21.555Z,59.10
2023-04-23T07:41:21.602Z,59.80
2023-04-23T07:42:21.567Z,59.80
2023-04-23T07:43:21.562Z,58.60
2023-04-23T07:44:21.491Z,60.40
2023-04-23T07:45:21.571Z,54.60
2023-04-23T07:46:21.532Z,55.20
2023-04-23T07:47:21.541Z,58.60
2023-04-23T07:48:21.471Z,56.20
2023-04-23T07:49:21.460Z,57.10
2023-04-23T07:50:21.453Z,59.00
2023-04-23T07:51:21.465Z,59.90
2023-04-23T07:52:21.398Z,60.20
2023-04-23T07:53:21.455Z,58.30
2023-04-23T07:54:21.387Z,56.80
2023-04-23T07:55:21.412Z,58.80
2023-04-23T07:56:21.378Z,57.70
2023-04-23T07:57:21.383Z,56.30
2023-04-23T07:58:21.312Z,57.90
2023-04-23T07:59:21.360Z,55.20
2023-04-23T08:00:21.317Z,56.10
2023-04-23T08:01:21.307Z,57.40
2023-04-23T08:02:21.337Z,54.20
2023-04-23T08:03:21.454Z,52.20
2023-04-23T08:04:21.444Z,53.90
2023-04-23T08:05:21.338Z,55.00
2023-04-23T08:06:21.208Z,54.90
2023-04-23T08:07:21.254Z,54.00
2023-04-23T08:08:21.210Z,52.60
2023-04-23T08:09:21.226Z,53.90
2023-04-23T08:10:21.177Z,55.30
2023-04-23T08:11:21.164Z,53.60
2023-04-23T08:12:21.125Z,51.50
2023-04-23T08:13:21.169Z,52.00
2023-04-23T08:14:21.133Z,51.80
2023-04-23T08:15:21.144Z,47.40
2023-04-23T08:16:21.099Z,46.20
2023-04-23T08:17:21.135Z,45.90
2023-04-23T08:18:21.051Z,45.00
2023-04-23T08:19:21.082Z,45.60
2023-04-23T08:20:21.040Z,44.40
2023-04-23T08:21:21.142Z,44.30
2023-04-23T08:22:22.181Z,44.10
2023-04-23T08:23:20.985Z,44.30
2023-04-23T08:24:20.963Z,44.60
2023-04-23T08:25:21.045Z,43.30
2023-04-23T08:26:20.927Z,43.00
2023-04-23T08:27:21.103Z,44.10
2023-04-23T08:28:20.927Z,40.90
2023-04-23T08:29:20.966Z,40.50
2023-04-23T08:30:20.926Z,40.50
2023-04-23T08:31:26.571Z,43.50
2023-04-23T08:32:22.209Z,37.20
2023-04-23T08:33:20.856Z,35.30
2023-04-23T08:34:20.855Z,34.40
2023-04-23T08:35:20.837Z,35.20
2023-04-23T08:36:20.846Z,35.10
2023-04-23T08:37:30.215Z,35.00
2023-04-23T08:38:21.837Z,35.00
2023-04-23T08:39:20.749Z,31.50
2023-04-23T08:40:20.773Z,30.00
2023-04-23T08:41:20.755Z,32.20
2023-04-23T08:42:20.742Z,30.20
2023-04-23T08:43:20.724Z,25.30
2023-04-23T08:44:20.781Z,23.90
2023-04-23T08:45:20.673Z,24.80
2023-04-23T08:46:20.716Z,24.50
2023-04-23T08:47:20.671Z,23.50
2023-04-23T08:48:20.689Z,23.00
2023-04-23T08:49:20.611Z,23.90
2023-04-23T08:50:20.692Z,23.70
2023-04-23T08:51:20.587Z,22.80
2023-04-23T08:52:20.601Z,21.00
2023-04-23T08:53:20.598Z,19.00
2023-04-23T08:54:20.578Z,20.20
2023-04-23T08:55:20.571Z,20.30
2023-04-23T08:56:20.698Z,20.70
2023-04-23T08:57:20.514Z,20.60
2023-04-23T08:58:20.555Z,21.10
2023-04-23T08:59:20.487Z,20.20
2023-04-23T09:00:20.508Z,21.50
2023-04-23T09:01:20.519Z,21.50
2023-04-23T09:02:20.706Z,20.70
2023-04-23T09:03:20.485Z,20.10
2023-04-23T09:04:20.447Z,21.30
2023-04-23T09:05:20.430Z,18.20
2023-04-23T09:06:20.416Z,17.60
2023-04-23T09:07:20.403Z,18.50
2023-04-23T09:08:20.448Z,20.00
2023-04-23T09:09:20.349Z,19.30
2023-04-23T09:10:20.384Z,19.40
2023-04-23T09:11:20.327Z,18.90
2023-04-23T09:12:20.345Z,19.90
2023-04-23T09:13:20.310Z,20.90
2023-04-23T09:14:20.337Z,20.60
2023-04-23T09:15:20.306Z,20.20
2023-04-23T09:16:20.318Z,20.20
2023-04-23T09:17:20.236Z,19.90
2023-04-23T09:18:20.261Z,19.30
2023-04-23T09:19:20.237Z,17.60
2023-04-23T09:20:20.314Z,19.00
2023-04-23T09:21:20.197Z,18.50
2023-04-23T09:22:20.233Z,18.40
2023-04-23T09:23:20.191Z,18.70
2023-04-23T09:24:20.139Z,17.90
2023-04-23T09:25:20.162Z,17.50
2023-04-23T09:26:20.184Z,17.60
2023-04-23T09:27:20.131Z,18.20
2023-04-23T09:28:20.137Z,18.20
2023-04-23T09:29:20.071Z,18.90
2023-04-23T09:30:20.148Z,19.30
2023-04-23T09:31:20.082Z,18.80
2023-04-23T09:32:20.337Z,17.90
2023-04-23T09:33:20.060Z,18.10
2023-04-23T09:34:20.037Z,18.30
2023-04-23T09:35:20.088Z,17.70
2023-04-23T09:36:20.034Z,17.80
2023-04-23T09:37:20.062Z,18.60
2023-04-23T09:38:20.033Z,18.50
2023-04-23T09:39:19.932Z,17.60
2023-04-23T09:40:20.108Z,18.70
2023-04-23T09:41:19.940Z,19.40
2023-04-23T09:42:19.918Z,18.90
2023-04-23T09:43:19.937Z,18.80
2023-04-23T09:44:20.026Z,19.20
2023-04-23T09:45:19.872Z,18.30
2023-04-23T09:46:19.913Z,19.30
2023-04-23T09:47:19.848Z,18.30
2023-04-23T09:48:19.837Z,18.00
2023-04-23T09:49:19.864Z,18.30
2023-04-23T09:50:20.050Z,18.00
2023-04-23T09:51:19.770Z,17.70
2023-04-23T09:52:19.798Z,17.20
2023-04-23T09:53:19.776Z,17.70
2023-04-23T09:54:19.754Z,16.50
2023-04-23T09:55:19.745Z,16.80
2023-04-23T09:56:19.875Z,15.80
2023-04-23T09:57:19.722Z,15.20
2023-04-23T09:58:19.723Z,16.20
2023-04-23T09:59:19.658Z,15.80
2023-04-23T10:00:20.045Z,15.70
2023-04-23T10:01:19.709Z,15.30
2023-04-23T10:02:19.767Z,16.70
2023-04-23T10:03:19.716Z,16.40
2023-04-23T10:04:19.920Z,21.30
2023-04-23T10:05:24.170Z,16.90
2023-04-23T10:06:36.863Z,16.80
2023-04-23T10:07:20.760Z,16.40
2023-04-23T10:08:19.609Z,16.40
2023-04-23T10:09:19.523Z,17.10
2023-04-23T10:10:19.572Z,16.00
2023-04-23T10:11:21.067Z,17.10
2023-04-23T10:13:21.278Z,16.50
2023-04-23T10:14:19.493Z,17.60
2023-04-23T10:15:19.472Z,18.20
2023-04-23T10:16:24.069Z,18.40
2023-04-23T10:17:20.456Z,18.10
2023-04-23T10:18:19.478Z,18.70
2023-04-23T10:19:19.511Z,17.20
2023-04-23T10:20:19.422Z,17.30
2023-04-23T10:21:19.400Z,18.80
2023-04-23T10:22:20.271Z,19.10
2023-04-23T10:23:19.336Z,19.10
2023-04-23T10:24:19.349Z,18.80
2023-04-23T10:25:19.453Z,16.30
2023-04-23T10:26:19.317Z,15.50
2023-04-23T10:28:19.317Z,16.80
2023-04-23T10:29:19.258Z,16.10
2023-04-23T10:30:19.625Z,16.00
2023-04-23T10:31:19.304Z,16.30
2023-04-23T10:32:19.251Z,16.10
2023-04-23T10:33:29.373Z,16.30
2023-04-23T10:34:20.258Z,17.10
2023-04-23T10:35:19.215Z,16.50
2023-04-23T10:36:19.214Z,17.40
2023-04-23T10:37:19.271Z,16.30
2023-04-23T10:38:19.187Z,14.10
2023-04-23T10:39:27.447Z,13.50
2023-04-23T10:40:20.142Z,12.50
2023-04-23T10:41:20.702Z,12.40
2023-04-23T10:42:19.106Z,13.00
2023-04-23T10:43:19.132Z,13.20
2023-04-23T10:44:32.984Z,13.50
2023-04-23T10:45:24.837Z,13.50
2023-04-23T10:46:20.109Z,12.80
2023-04-23T10:47:19.044Z,12.80
2023-04-23T10:48:19.021Z,11.80
2023-04-23T10:49:19.115Z,10.80
2023-04-23T10:50:19.132Z,10.60
2023-04-23T10:51:59.156Z,11.50
2023-04-23T10:52:22.801Z,11.30
2023-04-23T10:53:18.932Z,11.80
2023-04-23T10:54:18.943Z,11.40
2023-04-23T10:55:19.075Z,11.40
2023-04-23T10:56:18.955Z,11.60
2023-04-23T10:57:18.882Z,11.50
2023-04-23T10:58:18.905Z,11.20
2023-04-23T10:59:18.848Z,11.30
2023-04-23T11:00:18.854Z,10.60
2023-04-23T11:01:18.876Z,9.20
2023-04-23T11:02:18.914Z,9.30
2023-04-23T11:03:19.014Z,10.30
2023-04-23T11:04:19.012Z,9.10
2023-04-23T11:05:18.789Z,9.30
2023-04-23T11:06:18.810Z,8.70
2023-04-23T11:07:18.759Z,9.20
2023-04-23T11:08:20.025Z,9.30
2023-04-23T11:09:18.747Z,8.00
2023-04-23T11:10:18.772Z,8.20
2023-04-23T11:11:18.685Z,8.00
2023-04-23T11:12:18.700Z,7.10
2023-04-23T11:13:18.726Z,7.50
2023-04-23T11:14:18.669Z,6.80
2023-04-23T11:15:18.660Z,6.70
2023-04-23T11:16:18.874Z,6.70
2023-04-23T11:17:18.612Z,6.40
2023-04-23T11:18:18.649Z,6.20
2023-04-23T11:19:20.586Z,5.80
2023-04-23T11:20:18.584Z,6.30
2023-04-23T11:21:18.577Z,6.60
2023-04-23T11:22:18.573Z,6.90
2023-04-23T11:23:18.557Z,6.00
2023-04-23T11:24:18.566Z,6.20
2023-04-23T11:25:18.604Z,6.00
2023-04-23T11:26:18.511Z,6.60
2023-04-23T11:27:18.499Z,6.10
2023-04-23T11:28:18.510Z,6.20
2023-04-23T11:29:18.443Z,6.50
2023-04-23T11:30:18.492Z,6.30
2023-04-23T11:31:18.451Z,6.20
2023-04-23T11:32:18.513Z,5.90
2023-04-23T11:33:18.437Z,6.00
2023-04-23T11:34:18.410Z,5.30
2023-04-23T11:35:18.381Z,5.60
2023-04-23T11:36:18.403Z,5.50
2023-04-23T11:37:18.359Z,4.90
2023-04-23T11:38:18.371Z,4.90
2023-04-23T11:39:18.304Z,5.10
2023-04-23T11:40:18.322Z,4.80
2023-04-23T11:41:19.538Z,5.10
2023-04-23T11:42:18.291Z,4.90
2023-04-23T11:43:18.406Z,5.40
2023-04-23T11:44:18.268Z,5.40
2023-04-23T11:45:18.227Z,5.40
2023-04-23T11:46:18.283Z,4.90
2023-04-23T11:47:18.207Z,5.30
2023-04-23T11:48:18.213Z,5.50
2023-04-23T11:49:18.320Z,5.50
2023-04-23T11:50:18.185Z,5.60
2023-04-23T11:51:18.166Z,5.30
2023-04-23T11:52:18.187Z,5.60
2023-04-23T11:53:18.134Z,5.60
2023-04-23T11:54:18.162Z,5.40
2023-04-23T11:55:18.212Z,5.40
2023-04-23T11:56:18.107Z,4.70
2023-04-23T11:57:18.094Z,4.70
2023-04-23T11:58:18.104Z,4.70
2023-04-23T11:59:18.037Z,4.70
2023-04-23T12:00:18.047Z,4.50
2023-04-23T12:01:18.081Z,5.10
2023-04-23T12:02:18.147Z,4.80
2023-04-23T12:03:18.093Z,4.80
2023-04-23T12:04:18.230Z,5.30
2023-04-23T12:05:17.952Z,4.90
2023-04-23T12:06:17.998Z,5.50
2023-04-23T12:07:26.449Z,5.30
2023-04-23T12:08:18.945Z,5.10
2023-04-23T12:09:17.954Z,5.60
2023-04-23T12:10:17.929Z,4.70
2023-04-23T12:11:17.903Z,5.20
2023-04-23T12:12:17.920Z,4.80
2023-04-23T12:13:17.885Z,5.00
2023-04-23T12:14:17.874Z,5.30
2023-04-23T12:15:17.851Z,5.10
2023-04-23T12:16:17.883Z,5.20
2023-04-23T12:17:17.792Z,5.00
2023-04-23T12:18:17.829Z,5.10
2023-04-23T12:19:17.807Z,5.10
2023-04-23T12:20:17.791Z,5.40
2023-04-23T12:21:17.763Z,5.00
2023-04-23T12:22:17.754Z,4.30
2023-04-23T12:23:17.753Z,3.60
2023-04-23T12:24:17.761Z,4.10
2023-04-23T12:25:17.828Z,4.30
2023-04-23T12:26:17.770Z,4.60
2023-04-23T12:27:17.674Z,4.80
2023-04-23T12:28:17.678Z,4.80
2023-04-23T12:29:17.669Z,4.90
2023-04-23T12:30:17.678Z,4.80
2023-04-23T12:31:17.745Z,4.80
2023-04-23T12:32:17.626Z,4.40
2023-04-23T12:33:17.607Z,4.90
2023-04-23T12:34:17.604Z,5.30
2023-04-23T12:35:17.586Z,4.70
2023-04-23T12:36:17.595Z,4.80
2023-04-23T12:37:17.612Z,4.40
2023-04-23T12:38:17.577Z,4.80
2023-04-23T12:39:17.510Z,4.50
2023-04-23T12:40:18.284Z,4.60
2023-04-23T12:41:17.530Z,4.60
2023-04-23T12:42:41.028Z,4.30
2023-04-23T12:43:17.514Z,3.90
2023-04-23T12:44:17.503Z,4.30
2023-04-23T12:45:17.758Z,4.30
2023-04-23T12:46:17.424Z,4.40
2023-04-23T12:47:17.478Z,4.10
2023-04-23T12:48:18.212Z,4.20
2023-04-23T12:49:18.171Z,4.30
2023-04-23T12:50:17.413Z,4.50
2023-04-23T12:51:17.371Z,3.70
2023-04-23T12:52:17.530Z,3.90
2023-04-23T12:53:17.392Z,4.00